createdAt,value
2022-11-14T00:01:22.575Z,8.21
2022-11-14T00:03:51.467Z,8.16
2022-11-14T00:06:19.494Z,8.22
2022-11-14T00:08:48.977Z,8.27
2022-11-14T00:11:17.468Z,8.22
2022-11-14T00:13:46.513Z,8.05
2022-11-14T00:16:14.583Z,7.99
2022-11-14T00:18:42.654Z,7.96
2022-11-14T00:21:10.878Z,7.96
2022-11-14T00:23:38.904Z,8.06
2022-11-14T00:26:08.594Z,8.14
2022-11-14T00:28:36.667Z,8.21
2022-11-14T00:31:04.818Z,8.08
2022-11-14T00:33:32.924Z,7.90
2022-11-14T00:36:00.993Z,7.87
2022-11-14T00:38:29.400Z,7.76
2022-11-14T00:40:57.756Z,7.66
2022-11-14T00:43:27.214Z,7.45
2022-11-14T00:45:55.256Z,7.43
2022-11-14T00:48:23.301Z,7.43
2022-11-14T00:50:51.469Z,7.45
2022-11-14T00:53:19.550Z,7.44
2022-11-14T00:55:47.588Z,7.36
2022-11-14T00:58:15.690Z,7.35
2022-11-14T01:00:45.278Z,7.33
2022-11-14T01:03:13.435Z,7.27
2022-11-14T01:05:45.402Z,7.20
2022-11-14T01:08:14.726Z,7.22
2022-11-14T01:10:43.332Z,7.19
2022-11-14T01:13:12.173Z,7.20
2022-11-14T01:15:41.227Z,7.25
2022-11-14T01:18:13.020Z,7.24
2022-11-14T01:20:41.643Z,7.26
2022-11-14T01:23:10.799Z,7.26
2022-11-14T01:25:40.248Z,7.33
2022-11-14T01:28:11.723Z,7.46
2022-11-14T01:30:40.038Z,7.60
2022-11-14T01:33:08.457Z,7.76
2022-11-14T01:35:39.257Z,7.93
2022-11-14T01:38:07.752Z,8.14
2022-11-14T01:40:35.853Z,8.31
2022-11-14T01:43:26.691Z,8.34
2022-11-14T01:45:57.906Z,8.52
2022-11-14T01:48:32.167Z,8.49
2022-11-14T01:51:05.270Z,8.55
2022-11-14T01:53:33.753Z,8.64
2022-11-14T01:56:05.858Z,8.67
2022-11-14T01:58:37.390Z,8.55
2022-11-14T02:01:05.808Z,8.32
2022-11-14T02:03:37.283Z,8.24
2022-11-14T02:06:08.618Z,8.13
2022-11-14T02:08:38.092Z,8.12
2022-11-14T02:11:06.607Z,8.05
2022-11-14T02:13:34.681Z,8.01
2022-11-14T02:16:02.943Z,7.93
2022-11-14T02:18:31.183Z,7.79
2022-11-14T02:21:00.877Z,7.65
2022-11-14T02:23:30.803Z,7.54
2022-11-14T02:25:59.173Z,7.38
2022-11-14T02:28:28.033Z,7.24
2022-11-14T02:30:57.010Z,7.20
2022-11-14T02:33:25.047Z,7.12
2022-11-14T02:35:53.107Z,7.03
2022-11-14T02:38:22.630Z,7.01
2022-11-14T02:40:50.701Z,6.91
2022-11-14T02:43:18.856Z,6.88
2022-11-14T02:45:46.965Z,6.81
2022-11-14T02:48:15.258Z,6.85
2022-11-14T02:50:43.735Z,6.94
2022-11-14T02:53:11.906Z,6.90
2022-11-14T02:55:41.442Z,6.91
2022-11-14T02:58:09.585Z,6.91
2022-11-14T03:00:53.342Z,6.97
2022-11-14T03:03:25.647Z,7.10
2022-11-14T03:05:54.694Z,7.22
2022-11-14T03:08:22.758Z,7.22
2022-11-14T03:10:52.254Z,7.28
2022-11-14T03:13:20.377Z,7.25
2022-11-14T03:15:48.675Z,7.04
2022-11-14T03:18:16.748Z,7.11
2022-11-14T03:20:44.875Z,7.03
2022-11-14T03:23:12.935Z,6.80
2022-11-14T03:25:41.050Z,6.74
2022-11-14T03:28:10.496Z,6.71
2022-11-14T03:30:38.584Z,6.75
2022-11-14T03:33:06.654Z,6.77
2022-11-14T03:35:34.705Z,6.73
2022-11-14T03:38:02.824Z,6.85
2022-11-14T03:40:30.907Z,6.93
2022-11-14T03:42:59.107Z,6.86
2022-11-14T03:45:28.625Z,6.91
2022-11-14T03:47:56.815Z,6.94
2022-11-14T03:50:24.934Z,6.88
2022-11-14T03:52:53.086Z,6.72
2022-11-14T03:55:21.192Z,6.76
2022-11-14T03:57:49.355Z,6.69
2022-11-14T04:00:18.385Z,6.61
2022-11-14T04:02:47.902Z,6.60
2022-11-14T04:05:16.106Z,6.60
2022-11-14T04:07:44.218Z,6.55
2022-11-14T04:10:12.254Z,6.62
2022-11-14T04:12:40.658Z,6.62
2022-11-14T04:15:09.625Z,6.57
2022-11-14T04:17:40.022Z,6.51
2022-11-14T04:20:10.924Z,6.43
2022-11-14T04:22:39.051Z,6.49
2022-11-14T04:25:08.774Z,6.47
2022-11-14T04:27:36.942Z,6.51
2022-11-14T04:30:06.150Z,6.60
2022-11-14T04:32:34.328Z,6.74
2022-11-14T04:35:02.479Z,6.94
2022-11-14T04:37:32.161Z,7.08
2022-11-14T04:40:02.593Z,7.22
2022-11-14T04:42:30.629Z,7.18
2022-11-14T04:44:58.886Z,7.21
2022-11-14T04:47:26.970Z,7.25
2022-11-14T04:49:55.052Z,7.23
2022-11-14T04:52:23.104Z,7.33
2022-11-14T04:54:52.566Z,7.29
2022-11-14T04:57:20.758Z,7.37
2022-11-14T04:59:48.803Z,7.36
2022-11-14T05:02:16.871Z,7.36
2022-11-14T05:04:45.900Z,7.40
2022-11-14T05:07:14.670Z,7.34
2022-11-14T05:09:42.821Z,7.39
2022-11-14T05:12:12.241Z,7.39
2022-11-14T05:14:40.294Z,7.45
2022-11-14T05:17:08.478Z,7.40
2022-11-14T05:19:36.628Z,7.40
2022-11-14T05:22:04.687Z,7.44
2022-11-14T05:24:32.887Z,7.34
2022-11-14T05:27:01.084Z,7.20
2022-11-14T05:29:30.751Z,7.03
2022-11-14T05:31:59.244Z,7.02
2022-11-14T05:34:27.363Z,6.84
2022-11-14T05:36:55.690Z,6.82
2022-11-14T05:39:23.811Z,6.84
2022-11-14T05:41:51.872Z,6.84
2022-11-14T05:44:19.952Z,6.91
2022-11-14T05:46:49.507Z,7.00
2022-11-14T05:49:21.776Z,6.98
2022-11-14T05:51:50.130Z,7.02
2022-11-14T05:54:18.239Z,7.08
2022-11-14T05:56:46.350Z,7.22
2022-11-14T05:59:14.416Z,7.39
2022-11-14T06:01:42.944Z,7.31
2022-11-14T06:04:14.241Z,7.24
2022-11-14T06:06:42.604Z,7.16
2022-11-14T06:09:10.870Z,7.23
2022-11-14T06:11:39.059Z,7.20
2022-11-14T06:14:10.924Z,7.30
2022-11-14T06:16:39.366Z,7.32
2022-11-14T06:19:07.431Z,7.44
2022-11-14T06:21:37.056Z,7.37
2022-11-14T06:24:05.563Z,7.44
2022-11-14T06:26:34.077Z,7.48
2022-11-14T06:29:02.220Z,7.57
2022-11-14T06:31:30.470Z,7.83
2022-11-14T06:33:58.633Z,7.88
2022-11-14T06:36:27.157Z,7.92
2022-11-14T06:38:56.734Z,7.96
2022-11-14T06:41:25.090Z,8.10
2022-11-14T06:43:54.883Z,8.20
2022-11-14T06:46:24.297Z,8.33
2022-11-14T06:48:52.663Z,8.28
2022-11-14T06:51:20.881Z,8.52
2022-11-14T06:53:49.148Z,8.67
2022-11-14T06:56:20.339Z,8.82
2022-11-14T06:58:50.689Z,8.95
2022-11-14T07:01:20.401Z,8.93
2022-11-14T07:03:49.034Z,9.05
2022-11-14T07:06:18.752Z,9.18
2022-11-14T07:08:47.085Z,9.26
2022-11-14T07:11:23.089Z,9.25
2022-11-14T07:13:53.964Z,9.50
2022-11-14T07:16:24.956Z,9.53
2022-11-14T07:18:53.175Z,9.56
2022-11-14T07:21:21.274Z,9.68
2022-11-14T07:23:49.491Z,9.52
2022-11-14T07:26:17.537Z,9.46
2022-11-14T07:28:51.796Z,9.48
2022-11-14T07:31:22.531Z,9.64
2022-11-14T07:33:50.646Z,9.63
2022-11-14T07:36:19.067Z,9.59
2022-11-14T07:38:47.275Z,9.57
2022-11-14T07:41:17.442Z,9.66
2022-11-14T07:43:45.957Z,9.75
2022-11-14T07:46:15.754Z,9.86
2022-11-14T07:48:45.696Z,9.93
2022-11-14T07:51:17.276Z,10.05
2022-11-14T07:53:45.884Z,10.15
2022-11-14T07:56:14.179Z,10.19
2022-11-14T07:58:43.268Z,10.33
2022-11-14T08:01:14.037Z,10.31
2022-11-14T08:03:45.721Z,10.26
2022-11-14T08:06:17.498Z,10.33
2022-11-14T08:08:45.582Z,10.26
2022-11-14T08:11:15.083Z,10.59
2022-11-14T08:13:51.411Z,10.50
2022-11-14T08:16:19.521Z,10.68
2022-11-14T08:18:47.560Z,10.79
2022-11-14T08:21:17.049Z,10.48
2022-11-14T08:23:45.929Z,10.66
2022-11-14T08:26:14.052Z,10.65
2022-11-14T08:28:42.167Z,10.45
2022-11-14T08:31:10.391Z,10.61
2022-11-14T08:33:38.542Z,10.50
2022-11-14T08:36:09.309Z,10.55
2022-11-14T08:38:38.763Z,10.72
2022-11-14T08:41:07.035Z,10.56
2022-11-14T08:43:35.158Z,10.48
2022-11-14T08:46:05.438Z,10.29
2022-11-14T08:48:34.294Z,10.25
2022-11-14T08:51:06.212Z,10.45
2022-11-14T08:53:35.876Z,10.42
2022-11-14T08:56:05.735Z,10.41
2022-11-14T08:58:34.435Z,10.32
2022-11-14T09:01:03.563Z,10.32
2022-11-14T09:03:32.408Z,10.55
2022-11-14T09:06:01.449Z,10.27
2022-11-14T09:08:30.465Z,10.33
2022-11-14T09:11:05.493Z,10.19
2022-11-14T09:13:36.616Z,10.15
2022-11-14T09:16:04.820Z,10.13
2022-11-14T09:18:33.242Z,10.27
2022-11-14T09:21:03.145Z,10.46
2022-11-14T09:23:31.906Z,10.42
2022-11-14T09:26:04.347Z,10.32
2022-11-14T09:28:32.492Z,10.37
2022-11-14T09:31:06.994Z,10.25
2022-11-14T09:33:36.019Z,10.21
2022-11-14T09:36:06.467Z,10.27
2022-11-14T09:38:38.450Z,10.22
2022-11-14T09:41:21.174Z,10.20
2022-11-14T09:44:17.741Z,9.90
2022-11-14T09:46:54.681Z,10.19
2022-11-14T09:49:29.101Z,9.97
2022-11-14T09:52:03.994Z,9.86
2022-11-14T09:54:43.683Z,9.98
2022-11-14T09:57:17.108Z,10.04
2022-11-14T09:59:45.426Z,9.87
2022-11-14T10:02:30.245Z,9.87
2022-11-14T10:05:10.505Z,10.01
2022-11-14T10:07:50.006Z,9.92
2022-11-14T10:10:39.060Z,9.88
2022-11-14T10:13:19.414Z,10.01
2022-11-14T10:15:51.967Z,10.04
2022-11-14T10:18:37.671Z,9.89
2022-11-14T10:21:18.970Z,9.91
2022-11-14T10:24:00.837Z,9.85
2022-11-14T10:26:31.289Z,9.81
2022-11-14T10:29:23.534Z,9.66
2022-11-14T10:32:00.349Z,9.66
2022-11-14T10:34:36.334Z,9.74
2022-11-14T10:37:15.709Z,9.71
2022-11-14T10:39:49.912Z,9.84
2022-11-14T10:42:24.806Z,9.81
2022-11-14T10:44:57.212Z,9.81
2022-11-14T10:47:30.819Z,9.92
2022-11-14T10:50:06.387Z,9.67
2022-11-14T10:52:40.779Z,9.66
2022-11-14T10:55:15.559Z,9.67
2022-11-14T10:57:44.650Z,9.42
2022-11-14T11:00:14.642Z,9.49
2022-11-14T11:02:52.065Z,9.46
2022-11-14T11:05:24.279Z,9.40
2022-11-14T11:08:42.139Z,9.43
2022-11-14T11:11:17.960Z,9.42
2022-11-14T11:13:55.032Z,9.62
2022-11-14T11:16:24.870Z,9.69
2022-11-14T11:18:53.435Z,9.53
2022-11-14T11:21:24.543Z,9.57
2022-11-14T11:23:54.780Z,9.46
2022-11-14T11:26:25.324Z,9.37
2022-11-14T11:29:06.090Z,9.51
2022-11-14T11:31:54.424Z,9.57
2022-11-14T11:34:27.360Z,9.49
2022-11-14T11:37:00.162Z,9.42
2022-11-14T11:39:31.251Z,9.42
2022-11-14T11:42:10.601Z,9.47
2022-11-14T11:44:45.494Z,9.29
2022-11-14T11:47:18.164Z,9.51
2022-11-14T11:49:53.310Z,9.46
2022-11-14T11:52:33.236Z,9.60
2022-11-14T11:55:06.531Z,9.33
2022-11-14T11:57:40.347Z,9.29
2022-11-14T12:00:16.099Z,9.35
2022-11-14T12:02:49.978Z,9.29
2022-11-14T12:05:19.837Z,9.30
2022-11-14T12:07:56.531Z,9.31
2022-11-14T12:10:27.904Z,9.36
2022-11-14T12:13:19.421Z,9.47
2022-11-14T12:16:00.139Z,9.42
2022-11-14T12:18:43.792Z,9.44
2022-11-14T12:21:14.662Z,9.14
2022-11-14T12:24:18.138Z,9.19
2022-11-14T12:27:00.603Z,9.23
2022-11-14T12:29:55.193Z,9.15
2022-11-14T12:32:32.037Z,9.26
2022-11-14T12:35:01.404Z,9.14
2022-11-14T12:37:34.634Z,9.07
2022-11-14T12:40:06.798Z,9.02
2022-11-14T12:42:37.018Z,9.07
2022-11-14T12:45:05.606Z,8.92
2022-11-14T12:47:33.714Z,8.92
2022-11-14T12:50:06.548Z,8.98
2022-11-14T12:52:52.941Z,9.13
2022-11-14T12:55:56.142Z,9.08
2022-11-14T12:58:51.653Z,9.05
2022-11-14T13:01:38.905Z,8.99
2022-11-14T13:04:37.999Z,8.90
2022-11-14T13:07:27.598Z,8.87
2022-11-14T13:10:13.127Z,8.90
2022-11-14T13:13:00.071Z,8.68
2022-11-14T13:15:49.887Z,8.69
2022-11-14T13:18:41.302Z,8.55
2022-11-14T13:21:43.742Z,8.51
2022-11-14T13:24:16.318Z,8.48
2022-11-14T13:26:54.319Z,8.57
2022-11-14T13:30:00.002Z,8.45
2022-11-14T13:33:07.782Z,8.48
2022-11-14T13:36:02.121Z,8.47
2022-11-14T13:39:11.972Z,8.45
2022-11-14T13:42:02.654Z,8.39
2022-11-14T13:44:55.680Z,8.23
2022-11-14T13:47:46.565Z,8.20
2022-11-14T13:50:18.339Z,8.23
2022-11-14T13:52:49.346Z,8.30
2022-11-14T13:55:23.040Z,8.27
2022-11-14T13:58:04.314Z,8.30
2022-11-14T14:00:54.041Z,8.32
2022-11-14T14:03:34.566Z,8.27
2022-11-14T14:06:14.197Z,8.23
2022-11-14T14:09:10.335Z,8.23
2022-11-14T14:11:52.179Z,8.19
2022-11-14T14:14:38.041Z,8.23
2022-11-14T14:17:13.075Z,8.24
2022-11-14T14:19:56.642Z,8.27
2022-11-14T14:22:34.266Z,8.22
2022-11-14T14:25:15.239Z,8.09
2022-11-14T14:27:59.076Z,8.05
2022-11-14T14:30:27.444Z,8.15
2022-11-14T14:33:15.303Z,8.09
2022-11-14T14:35:52.256Z,7.97
2022-11-14T14:38:25.216Z,7.94
2022-11-14T14:40:56.826Z,7.96
2022-11-14T14:43:30.514Z,7.98
2022-11-14T14:45:59.161Z,7.83
2022-11-14T14:48:30.357Z,7.88
2022-11-14T14:51:00.473Z,7.87
2022-11-14T14:53:31.103Z,7.93
2022-11-14T14:56:02.881Z,7.84
2022-11-14T14:58:33.616Z,7.85
2022-11-14T15:01:05.174Z,7.82
2022-11-14T15:03:37.464Z,7.70
2022-11-14T15:06:07.766Z,7.81
2022-11-14T15:08:39.814Z,7.79
2022-11-14T15:11:09.766Z,7.79
2022-11-14T15:13:39.415Z,7.88
2022-11-14T15:16:09.623Z,7.77
2022-11-14T15:18:38.569Z,7.76
2022-11-14T15:21:12.058Z,7.68
2022-11-14T15:23:41.122Z,7.61
2022-11-14T15:26:17.177Z,7.71
2022-11-14T15:28:45.579Z,7.79
2022-11-14T15:31:21.878Z,7.83
2022-11-14T15:34:03.704Z,7.69
2022-11-14T15:36:31.875Z,7.76
2022-11-14T15:39:02.416Z,7.72
2022-11-14T15:41:32.877Z,7.74
2022-11-14T15:44:05.327Z,7.59
2022-11-14T15:46:43.011Z,7.62
2022-11-14T15:49:20.062Z,7.53
2022-11-14T15:51:50.539Z,7.63
2022-11-14T15:54:28.399Z,7.57
2022-11-14T15:56:59.624Z,7.58
2022-11-14T15:59:29.114Z,7.50
2022-11-14T16:02:00.607Z,7.52
2022-11-14T16:04:32.183Z,7.49
2022-11-14T16:07:00.698Z,7.38
2022-11-14T16:09:28.802Z,7.27
2022-11-14T16:11:58.437Z,7.34
2022-11-14T16:14:26.700Z,7.44
2022-11-14T16:16:54.818Z,7.59
2022-11-14T16:19:23.117Z,7.44
2022-11-14T16:21:51.468Z,7.48
2022-11-14T16:24:21.518Z,7.52
2022-11-14T16:26:50.477Z,7.51
2022-11-14T16:29:19.979Z,7.45
2022-11-14T16:31:48.641Z,7.28
2022-11-14T16:34:19.879Z,7.16
2022-11-14T16:36:48.766Z,7.24
2022-11-14T16:39:17.109Z,7.27
2022-11-14T16:41:45.201Z,7.14
2022-11-14T16:44:17.748Z,7.10
2022-11-14T16:46:47.648Z,7.08
2022-11-14T16:49:16.888Z,7.16
2022-11-14T16:51:48.556Z,7.16
2022-11-14T16:54:17.952Z,7.07
2022-11-14T16:56:46.273Z,7.03
2022-11-14T16:59:14.877Z,6.92
2022-11-14T17:01:43.825Z,6.99
2022-11-14T17:04:13.439Z,7.04
2022-11-14T17:06:41.563Z,6.93
2022-11-14T17:09:09.743Z,6.90
2022-11-14T17:11:37.976Z,6.91
2022-11-14T17:14:06.191Z,6.77
2022-11-14T17:16:34.367Z,6.88
2022-11-14T17:19:03.673Z,6.94
2022-11-14T17:21:33.262Z,6.97
2022-11-14T17:24:02.698Z,6.76
2022-11-14T17:26:31.458Z,6.87
2022-11-14T17:28:59.596Z,6.67
2022-11-14T17:31:27.693Z,6.87
2022-11-14T17:33:57.618Z,6.85
2022-11-14T17:36:27.421Z,6.78
2022-11-14T17:38:57.562Z,6.83
2022-11-14T17:41:25.870Z,6.85
2022-11-14T17:43:56.676Z,6.91
2022-11-14T17:46:24.811Z,6.71
2022-11-14T17:48:53.041Z,6.80
2022-11-14T17:51:21.144Z,6.80
2022-11-14T17:53:49.383Z,6.78
2022-11-14T17:56:21.560Z,6.78
2022-11-14T17:58:51.257Z,6.79
2022-11-14T18:01:21.551Z,6.92
2022-11-14T18:03:50.259Z,6.83
2022-11-14T18:06:20.429Z,6.78
2022-11-14T18:08:49.520Z,6.86
2022-11-14T18:11:20.455Z,6.84
2022-11-14T18:13:48.626Z,6.84
2022-11-14T18:16:19.259Z,6.80
2022-11-14T18:18:47.541Z,6.86
2022-11-14T18:21:18.338Z,6.96
2022-11-14T18:23:51.982Z,7.10
2022-11-14T18:26:27.127Z,6.98
2022-11-14T18:28:56.862Z,6.94
2022-11-14T18:31:25.635Z,6.93
2022-11-14T18:33:53.796Z,6.91
2022-11-14T18:36:22.237Z,6.88
2022-11-14T18:38:50.494Z,6.98
2022-11-14T18:41:22.288Z,7.09
2022-11-14T18:43:50.488Z,7.05
2022-11-14T18:46:20.658Z,7.13
2022-11-14T18:48:50.870Z,7.04
2022-11-14T18:51:21.473Z,7.17
2022-11-14T18:53:51.080Z,7.13
2022-11-14T18:56:22.382Z,7.14
2022-11-14T18:58:54.345Z,7.14
2022-11-14T19:01:26.279Z,7.12
2022-11-14T19:03:57.946Z,6.98
2022-11-14T19:06:26.248Z,6.97
2022-11-14T19:08:57.880Z,7.06
2022-11-14T19:11:45.028Z,7.04
2022-11-14T19:14:13.274Z,7.06
2022-11-14T19:16:41.384Z,7.07
2022-11-14T19:19:10.254Z,7.02
2022-11-14T19:21:38.592Z,7.01
2022-11-14T19:24:07.472Z,7.02
2022-11-14T19:26:37.435Z,7.03
2022-11-14T19:29:09.466Z,7.08
2022-11-14T19:31:37.877Z,7.11
2022-11-14T19:34:06.351Z,7.09
2022-11-14T19:39:23.386Z,6.99
2022-11-14T19:41:52.837Z,7.05
2022-11-14T19:44:20.965Z,7.07
2022-11-14T19:46:49.060Z,7.18
2022-11-14T19:49:17.348Z,7.05
2022-11-14T19:51:45.606Z,7.24
2022-11-14T19:54:13.886Z,7.25
2022-11-14T19:56:42.015Z,7.24
2022-11-14T19:59:15.521Z,7.29
2022-11-14T20:01:45.147Z,7.22
2022-11-14T20:04:14.144Z,7.27
2022-11-14T20:06:43.271Z,7.31
2022-11-14T20:09:12.214Z,7.29
2022-11-14T20:11:40.575Z,7.25
2022-11-14T20:14:08.763Z,7.28
2022-11-14T20:16:38.519Z,7.26
2022-11-14T20:19:06.975Z,7.31
2022-11-14T20:21:36.200Z,7.29
2022-11-14T20:24:04.588Z,7.23
2022-11-14T20:26:32.731Z,7.22
2022-11-14T20:29:00.900Z,7.19
2022-11-14T20:31:31.026Z,7.11
2022-11-14T20:34:01.170Z,7.12
2022-11-14T20:36:38.956Z,7.10
2022-11-14T20:39:17.467Z,7.19
2022-11-14T20:41:45.567Z,7.13
2022-11-14T20:44:13.695Z,7.10
2022-11-14T20:46:42.093Z,7.17
2022-11-14T20:49:11.878Z,7.17
2022-11-14T20:51:40.078Z,7.25
2022-11-14T20:54:10.273Z,7.13
2022-11-14T20:56:38.488Z,7.08
2022-11-14T20:59:07.351Z,7.15
2022-11-14T21:01:40.469Z,7.09
2022-11-14T21:04:12.896Z,7.10
2022-11-14T21:06:41.459Z,7.09
2022-11-14T21:09:10.950Z,7.00
2022-11-14T21:11:39.078Z,6.99
2022-11-14T21:14:09.103Z,7.02
2022-11-14T21:16:39.589Z,7.14
2022-11-14T21:19:08.591Z,6.99
2022-11-14T21:21:39.261Z,7.07
2022-11-14T21:24:09.108Z,6.98
2022-11-14T21:26:39.989Z,7.00
2022-11-14T21:29:11.205Z,7.00
2022-11-14T21:31:41.178Z,7.10
2022-11-14T21:34:12.406Z,7.09
2022-11-14T21:36:45.431Z,7.06
2022-11-14T21:39:15.702Z,6.99
2022-11-14T21:41:45.019Z,7.05
2022-11-14T21:44:16.535Z,6.99
2022-11-14T21:46:48.814Z,7.02
2022-11-14T21:49:18.112Z,6.96
2022-11-14T21:51:48.500Z,6.95
2022-11-14T21:54:16.765Z,7.01
2022-11-14T21:56:44.821Z,6.98
2022-11-14T21:59:15.973Z,7.02
2022-11-14T22:02:04.026Z,7.07
2022-11-14T22:04:32.829Z,6.90
2022-11-14T22:07:03.583Z,7.00
2022-11-14T22:09:32.468Z,6.99
2022-11-14T22:12:01.130Z,7.04
2022-11-14T22:14:29.575Z,7.07
2022-11-14T22:16:58.848Z,7.02
2022-11-14T22:19:26.991Z,7.06
2022-11-14T22:21:55.419Z,7.01
2022-11-14T22:24:25.041Z,7.06
2022-11-14T22:26:53.113Z,7.12
2022-11-14T22:29:21.243Z,7.06
2022-11-14T22:31:53.004Z,7.09
2022-11-14T22:34:21.260Z,6.99
2022-11-14T22:36:49.362Z,6.90
2022-11-14T22:39:17.464Z,6.93
2022-11-14T22:41:47.067Z,7.05
2022-11-14T22:44:15.178Z,6.99
2022-11-14T22:46:43.244Z,7.02
2022-11-14T22:49:11.411Z,6.98
2022-11-14T22:51:39.473Z,7.04
2022-11-14T22:54:07.640Z,6.99
2022-11-14T22:56:36.039Z,6.97
2022-11-14T22:59:05.742Z,6.96
2022-11-14T23:01:34.621Z,7.02
2022-11-14T23:04:04.956Z,6.94
2022-11-14T23:06:35.569Z,7.02
2022-11-14T23:09:05.188Z,6.99
2022-11-14T23:11:34.323Z,7.07
2022-11-14T23:14:02.944Z,6.99
2022-11-14T23:16:34.986Z,7.05
2022-11-14T23:19:05.358Z,7.07
2022-11-14T23:21:36.626Z,7.04
2022-11-14T23:24:06.710Z,7.04
2022-11-14T23:26:34.898Z,6.98
2022-11-14T23:29:03.150Z,6.98
2022-11-14T23:31:32.629Z,6.96
2022-11-14T23:34:00.672Z,7.05
2022-11-14T23:36:28.730Z,7.02
2022-11-14T23:38:57.039Z,7.10
2022-11-14T23:41:26.861Z,7.01
2022-11-14T23:43:55.109Z,6.89
2022-11-14T23:46:23.231Z,6.95
2022-11-14T23:48:53.481Z,6.99
2022-11-14T23:51:21.648Z,7.03
2022-11-14T23:53:49.740Z,6.95
2022-11-14T23:56:17.967Z,6.96
2022-11-14T23:58:46.171Z,6.94
